createdAt,value
2019-01-06T00:03:20.377Z,9.60
2019-01-06T00:06:20.528Z,8.93
2019-01-06T00:09:20.066Z,7.47
2019-01-06T00:12:14.472Z,7.43
2019-01-06T00:15:14.401Z,7.73
2019-01-06T00:18:14.693Z,9.10
2019-01-06T00:21:14.560Z,8.80
2019-01-06T00:24:11.688Z,8.20
2019-01-06T00:27:14.767Z,9.20
2019-01-06T00:30:14.783Z,7.53
2019-01-06T00:33:14.615Z,8.20
2019-01-06T00:36:14.447Z,9.50
2019-01-06T00:39:13.985Z,9.50
2019-01-06T00:42:13.472Z,8.33
2019-01-06T00:45:10.761Z,8.00
2019-01-06T00:48:17.848Z,9.40
2019-01-06T00:51:17.354Z,11.17
2019-01-06T00:54:11.208Z,9.17
2019-01-06T00:57:14.296Z,10.10
2019-01-06T01:00:13.440Z,10.47
2019-01-06T01:03:13.415Z,9.57
2019-01-06T01:06:13.093Z,8.67
2019-01-06T01:09:12.683Z,7.97
2019-01-06T01:12:12.125Z,11.40
2019-01-06T01:15:11.716Z,10.17
2019-01-06T01:18:17.814Z,11.70
2019-01-06T01:21:20.300Z,9.73
2019-01-06T01:24:25.875Z,10.53
2019-01-06T01:27:28.824Z,10.47
2019-01-06T01:30:28.549Z,10.23
2019-01-06T01:33:28.836Z,10.27
2019-01-06T01:36:28.285Z,9.63
2019-01-06T01:39:33.848Z,8.83
2019-01-06T01:42:33.975Z,9.20
2019-01-06T01:45:33.952Z,8.93
2019-01-06T01:48:34.114Z,9.07
2019-01-06T01:51:33.864Z,7.50
2019-01-06T01:57:43.549Z,9.03
2019-01-06T02:00:46.681Z,8.53
2019-01-06T02:03:46.730Z,9.87
2019-01-06T02:06:46.209Z,8.70
2019-01-06T02:09:45.680Z,9.63
2019-01-06T02:12:46.335Z,9.60
2019-01-06T02:15:45.987Z,9.83
2019-01-06T02:18:45.429Z,10.87
2019-01-06T02:21:45.580Z,10.10
2019-01-06T02:24:45.405Z,9.03
2019-01-06T02:27:44.896Z,8.30
2019-01-06T02:30:45.182Z,10.30
2019-01-06T02:33:44.746Z,10.00
2019-01-06T02:36:44.272Z,9.33
2019-01-06T02:43:03.187Z,10.50
2019-01-06T02:46:03.397Z,11.43
2019-01-06T02:49:02.898Z,9.70
2019-01-06T02:52:03.127Z,11.77
2019-01-06T02:55:02.577Z,9.27
2019-01-06T02:58:02.146Z,10.80
2019-01-06T03:01:07.663Z,13.00
2019-01-06T03:03:57.904Z,8.67
2019-01-06T03:06:53.837Z,10.33
2019-01-06T03:09:54.181Z,11.67
2019-01-06T03:16:04.030Z,8.50
2019-01-06T03:19:05.414Z,10.27
2019-01-06T03:22:05.514Z,8.77
2019-01-06T03:25:08.074Z,9.13
2019-01-06T03:28:07.945Z,10.47
2019-01-06T03:30:56.196Z,7.90
2019-01-06T03:34:03.392Z,9.90
2019-01-06T03:37:03.138Z,7.40
2019-01-06T03:40:02.659Z,6.77
2019-01-06T03:43:07.943Z,9.80
2019-01-06T03:46:08.073Z,9.37
2019-01-06T03:49:13.807Z,7.30
2019-01-06T03:52:13.620Z,8.77
2019-01-06T03:55:14.017Z,7.23
2019-01-06T03:58:13.747Z,6.63
2019-01-06T04:01:13.286Z,8.20
2019-01-06T04:04:11.568Z,6.90
2019-01-06T04:07:10.693Z,5.33
2019-01-06T04:10:13.655Z,5.73
2019-01-06T04:13:19.736Z,4.97
2019-01-06T04:16:19.532Z,4.20
2019-01-06T04:19:19.232Z,4.70
2019-01-06T04:22:19.136Z,5.47
2019-01-06T04:25:23.219Z,4.00
2019-01-06T04:28:30.447Z,6.20
2019-01-06T04:31:30.452Z,4.03
2019-01-06T04:34:30.724Z,4.43
2019-01-06T04:37:36.332Z,4.37
2019-01-06T04:40:35.941Z,3.83
2019-01-06T04:43:35.312Z,4.60
2019-01-06T04:46:32.775Z,4.60
2019-01-06T04:49:38.639Z,5.67
2019-01-06T04:52:38.242Z,4.10
2019-01-06T04:55:40.872Z,5.17
2019-01-06T04:58:41.251Z,6.27
2019-01-06T05:01:40.812Z,5.00
2019-01-06T05:04:43.105Z,5.37
2019-01-06T05:07:42.951Z,5.97
2019-01-06T05:10:42.583Z,6.73
2019-01-06T05:13:41.973Z,8.00
2019-01-06T05:16:42.301Z,6.50
2019-01-06T05:19:42.651Z,6.80
2019-01-06T05:22:35.674Z,5.73
2019-01-06T05:25:23.729Z,11.60
2019-01-06T05:28:30.846Z,7.10
2019-01-06T05:31:30.557Z,7.00
2019-01-06T05:34:30.535Z,7.33
2019-01-06T05:37:18.460Z,7.07
2019-01-06T05:40:25.620Z,7.27
2019-01-06T05:43:20.368Z,7.23
2019-01-06T05:46:19.759Z,6.70
2019-01-06T05:49:25.334Z,8.00
2019-01-06T05:52:20.367Z,7.77
2019-01-06T05:55:20.716Z,7.83
2019-01-06T05:58:13.675Z,9.47
2019-01-06T06:01:20.757Z,9.33
2019-01-06T06:07:27.538Z,11.10
2019-01-06T06:10:26.956Z,10.00
2019-01-06T06:13:27.395Z,8.00
2019-01-06T06:16:27.519Z,13.30
2019-01-06T06:19:29.992Z,15.90
2019-01-06T06:22:29.980Z,16.57
2019-01-06T06:25:31.758Z,13.73
2019-01-06T06:28:31.819Z,10.17
2019-01-06T06:31:37.395Z,13.47
2019-01-06T06:34:37.476Z,13.27
2019-01-06T06:37:38.463Z,14.47
2019-01-06T06:40:27.869Z,13.77
2019-01-06T06:43:28.233Z,11.57
2019-01-06T06:46:27.801Z,14.80
2019-01-06T06:49:28.104Z,13.80
2019-01-06T06:52:35.240Z,12.47
2019-01-06T06:55:38.228Z,14.43
2019-01-06T06:58:42.456Z,16.17
2019-01-06T07:02:01.281Z,10.93
2019-01-06T07:05:00.941Z,17.30
2019-01-06T07:08:00.496Z,13.00
2019-01-06T07:11:00.757Z,10.80
2019-01-06T07:13:58.748Z,13.77
2019-01-06T07:16:58.877Z,14.07
2019-01-06T07:19:55.163Z,10.53
2019-01-06T07:22:54.913Z,13.67
2019-01-06T07:25:53.257Z,14.90
2019-01-06T07:28:52.665Z,16.23
2019-01-06T07:31:52.963Z,13.53
2019-01-06T07:34:53.341Z,19.00
2019-01-06T07:37:52.980Z,13.47
2019-01-06T07:40:52.570Z,11.20
2019-01-06T07:43:52.149Z,18.40
2019-01-06T07:46:52.537Z,17.47
2019-01-06T07:49:53.052Z,12.53
2019-01-06T07:56:08.655Z,17.07
2019-01-06T07:59:08.097Z,11.77
2019-01-06T08:02:07.689Z,14.93
2019-01-06T08:08:10.705Z,11.07
2019-01-06T08:11:10.153Z,10.90
2019-01-06T08:14:10.507Z,9.73
2019-01-06T08:17:13.040Z,9.30
2019-01-06T08:19:47.915Z,10.07
2019-01-06T08:22:44.988Z,10.33
2019-01-06T08:25:30.945Z,12.53
2019-01-06T08:28:30.607Z,13.83
2019-01-06T08:31:30.509Z,16.33
2019-01-06T08:34:24.511Z,11.63
2019-01-06T08:37:24.132Z,11.23
2019-01-06T08:40:24.031Z,12.73
2019-01-06T08:43:14.684Z,10.90
2019-01-06T08:46:01.269Z,10.63
2019-01-06T08:48:58.392Z,9.17
2019-01-06T08:51:45.028Z,12.70
2019-01-06T08:54:31.689Z,10.53
2019-01-06T08:57:31.699Z,13.87
2019-01-06T09:00:18.038Z,10.93
2019-01-06T09:03:04.568Z,13.77
2019-01-06T09:05:51.349Z,12.73
2019-01-06T09:08:38.036Z,13.27
2019-01-06T09:11:29.099Z,10.93
2019-01-06T09:14:15.756Z,14.33
2019-01-06T09:17:03.684Z,12.20
2019-01-06T09:19:52.656Z,9.40
2019-01-06T09:22:39.156Z,8.63
2019-01-06T09:25:25.931Z,9.83
2019-01-06T09:28:13.314Z,11.80
2019-01-06T09:30:59.857Z,14.87
2019-01-06T09:33:46.663Z,12.67
2019-01-06T09:36:34.572Z,9.47
2019-01-06T09:39:37.389Z,11.73
2019-01-06T09:42:25.336Z,10.37
2019-01-06T09:45:04.737Z,10.30
2019-01-06T09:47:55.276Z,9.17
2019-01-06T09:50:41.045Z,10.43
2019-01-06T09:53:44.164Z,13.43
2019-01-06T09:56:33.252Z,10.10
2019-01-06T09:59:19.589Z,7.70
2019-01-06T10:02:15.836Z,8.13
2019-01-06T10:04:56.557Z,13.90
2019-01-06T10:07:43.088Z,10.60
2019-01-06T10:10:38.024Z,10.10
2019-01-06T10:13:24.355Z,9.20
2019-01-06T10:16:25.085Z,11.37
2019-01-06T10:19:11.795Z,8.83
2019-01-06T10:21:58.476Z,13.33
2019-01-06T10:24:52.179Z,9.33
2019-01-06T10:27:40.223Z,9.80
2019-01-06T10:30:25.347Z,10.67
2019-01-06T10:33:31.227Z,11.97
2019-01-06T10:36:17.340Z,8.87
2019-01-06T10:38:57.864Z,10.10
2019-01-06T10:41:42.179Z,9.93
2019-01-06T10:44:28.660Z,11.13
2019-01-06T10:47:15.271Z,8.70
2019-01-06T10:50:08.860Z,9.90
2019-01-06T10:52:55.513Z,8.33
2019-01-06T10:55:46.632Z,11.23
2019-01-06T10:58:33.076Z,9.27
2019-01-06T11:01:30.217Z,9.90
2019-01-06T11:04:24.028Z,11.80
2019-01-06T11:07:08.805Z,9.37
2019-01-06T11:09:55.363Z,6.63
2019-01-06T11:13:03.867Z,6.70
2019-01-06T11:15:50.324Z,10.60
2019-01-06T11:18:36.928Z,11.63
2019-01-06T11:21:34.191Z,9.77
2019-01-06T11:24:15.607Z,9.07
2019-01-06T11:27:09.640Z,10.47
2019-01-06T11:30:03.418Z,11.10
2019-01-06T11:32:55.445Z,10.33
2019-01-06T11:35:41.809Z,8.47
2019-01-06T11:38:28.431Z,9.40
2019-01-06T11:41:10.170Z,10.97
2019-01-06T11:44:02.824Z,9.03
2019-01-06T11:46:49.335Z,8.70
2019-01-06T11:49:35.929Z,12.60
2019-01-06T11:52:27.097Z,11.37
2019-01-06T11:55:27.002Z,10.47
2019-01-06T11:58:24.025Z,7.90
2019-01-06T12:01:11.937Z,8.40
2019-01-06T12:04:05.760Z,9.87
2019-01-06T12:06:52.757Z,11.40
2019-01-06T12:09:40.688Z,10.47
2019-01-06T12:12:28.664Z,9.07
2019-01-06T12:15:15.111Z,10.07
2019-01-06T12:18:01.857Z,11.70
2019-01-06T12:20:58.765Z,10.43
2019-01-06T12:23:39.345Z,11.43
2019-01-06T12:26:42.299Z,7.43
2019-01-06T12:29:28.319Z,5.83
2019-01-06T12:32:28.631Z,7.27
2019-01-06T12:35:25.760Z,6.27
2019-01-06T12:38:28.615Z,7.23
2019-01-06T12:41:31.870Z,9.50
2019-01-06T12:44:32.072Z,8.70
2019-01-06T12:47:26.438Z,9.97
2019-01-06T12:50:02.142Z,10.23
2019-01-06T12:53:02.361Z,7.10
2019-01-06T12:55:49.086Z,8.50
2019-01-06T12:58:35.843Z,10.77
2019-01-06T13:01:23.044Z,7.73
2019-01-06T13:04:19.847Z,6.87
2019-01-06T13:07:07.807Z,7.10
2019-01-06T13:10:07.372Z,7.20
2019-01-06T13:13:01.308Z,7.40
2019-01-06T13:15:58.424Z,7.20
2019-01-06T13:18:45.072Z,7.07
2019-01-06T13:21:27.247Z,8.53
2019-01-06T13:24:15.289Z,6.67
2019-01-06T13:27:00.819Z,9.27
2019-01-06T13:29:57.752Z,9.87
2019-01-06T13:32:44.381Z,9.40
2019-01-06T13:35:31.233Z,10.77
2019-01-06T13:38:19.252Z,10.87
2019-01-06T13:41:13.318Z,12.13
2019-01-06T13:43:57.860Z,10.87
2019-01-06T13:46:54.775Z,9.17
2019-01-06T13:49:41.272Z,8.57
2019-01-06T13:52:44.307Z,8.37
2019-01-06T13:55:30.929Z,7.27
2019-01-06T13:58:24.580Z,7.23
2019-01-06T14:01:20.020Z,11.67
2019-01-06T14:04:23.192Z,10.73
2019-01-06T14:07:29.366Z,8.90
2019-01-06T14:10:29.568Z,7.17
2019-01-06T14:13:16.127Z,9.33
2019-01-06T14:16:01.186Z,7.53
2019-01-06T14:18:47.930Z,9.37
2019-01-06T14:21:34.728Z,8.47
2019-01-06T14:24:28.704Z,9.20
2019-01-06T14:27:22.585Z,9.20
2019-01-06T14:30:21.872Z,8.77
2019-01-06T14:33:11.870Z,7.00
2019-01-06T14:36:03.793Z,6.13
2019-01-06T14:39:00.768Z,5.43
2019-01-06T14:41:54.207Z,8.07
2019-01-06T14:44:40.703Z,8.30
2019-01-06T14:47:27.130Z,9.50
2019-01-06T14:50:20.199Z,10.80
2019-01-06T14:53:08.104Z,7.43
2019-01-06T14:55:56.123Z,8.50
2019-01-06T14:58:36.323Z,8.37
2019-01-06T15:01:23.048Z,9.73
2019-01-06T15:04:11.021Z,8.90
2019-01-06T15:06:51.936Z,10.43
2019-01-06T15:09:35.845Z,8.77
2019-01-06T15:12:42.352Z,9.97
2019-01-06T15:15:29.182Z,8.53
2019-01-06T15:18:34.747Z,8.10
2019-01-06T15:21:25.585Z,8.70
2019-01-06T15:24:25.368Z,7.47
2019-01-06T15:27:23.050Z,6.60
2019-01-06T15:30:06.450Z,8.53
2019-01-06T15:32:52.857Z,7.53
2019-01-06T15:35:41.988Z,7.50
2019-01-06T15:38:38.930Z,9.27
2019-01-06T15:41:25.792Z,7.83
2019-01-06T15:44:29.019Z,6.70
2019-01-06T15:47:15.694Z,8.97
2019-01-06T15:50:02.347Z,7.70
2019-01-06T15:52:51.152Z,8.57
2019-01-06T15:55:37.549Z,9.73
2019-01-06T15:58:24.247Z,8.30
2019-01-06T16:01:15.218Z,7.97
2019-01-06T16:04:06.416Z,9.90
2019-01-06T16:06:54.398Z,10.17
2019-01-06T16:09:41.350Z,8.80
2019-01-06T16:12:18.064Z,10.03
2019-01-06T16:15:15.339Z,12.17
2019-01-06T16:17:58.817Z,11.87
2019-01-06T16:20:58.207Z,15.33
2019-01-06T16:23:44.988Z,13.80
2019-01-06T16:26:32.360Z,15.13
2019-01-06T16:29:21.996Z,12.20
2019-01-06T16:32:08.657Z,14.97
2019-01-06T16:34:55.403Z,14.20
2019-01-06T16:37:46.412Z,11.57
2019-01-06T16:40:35.220Z,12.87
2019-01-06T16:43:23.314Z,11.67
2019-01-06T16:46:10.164Z,13.43
2019-01-06T16:49:12.390Z,13.07
2019-01-06T16:51:58.884Z,12.30
2019-01-06T16:54:55.991Z,11.17
2019-01-06T16:57:45.810Z,10.40
2019-01-06T17:00:33.696Z,14.30
2019-01-06T17:03:21.885Z,11.43
2019-01-06T17:06:22.029Z,13.13
2019-01-06T17:09:08.836Z,12.23
2019-01-06T17:11:57.222Z,11.23
2019-01-06T17:14:43.636Z,12.27
2019-01-06T17:17:31.527Z,12.57
2019-01-06T17:20:25.350Z,13.00
2019-01-06T17:23:13.349Z,12.33
2019-01-06T17:26:00.070Z,11.63
2019-01-06T17:29:01.191Z,13.90
2019-01-06T17:31:49.077Z,14.27
2019-01-06T17:34:42.894Z,12.03
2019-01-06T17:37:29.339Z,13.67
2019-01-06T17:40:16.121Z,10.80
2019-01-06T17:43:02.789Z,14.10
2019-01-06T17:45:49.403Z,11.57
2019-01-06T17:48:35.924Z,12.63
2019-01-06T17:51:30.792Z,10.07
2019-01-06T17:54:17.225Z,10.17
2019-01-06T17:57:03.997Z,11.27
2019-01-06T17:59:55.245Z,14.10
2019-01-06T18:02:40.695Z,9.53
2019-01-06T18:05:28.710Z,11.23
2019-01-06T18:08:14.657Z,11.17
2019-01-06T18:11:05.842Z,12.93
2019-01-06T18:14:12.152Z,17.30
2019-01-06T18:17:00.127Z,14.70
2019-01-06T18:20:00.041Z,15.37
2019-01-06T18:22:46.476Z,15.07
2019-01-06T18:25:33.197Z,10.73
2019-01-06T18:28:19.849Z,10.27
2019-01-06T18:30:58.519Z,9.60
2019-01-06T18:33:44.800Z,14.00
2019-01-06T18:36:31.600Z,15.43
2019-01-06T18:39:37.829Z,13.57
2019-01-06T18:42:24.674Z,14.10
2019-01-06T18:45:15.596Z,17.86
2019-01-06T18:48:12.568Z,13.47
2019-01-06T18:50:59.264Z,14.00
2019-01-06T18:53:50.291Z,14.13
2019-01-06T18:56:39.280Z,11.27
2019-01-06T18:59:36.586Z,12.47
2019-01-06T19:02:23.183Z,15.13
2019-01-06T19:05:19.197Z,12.50
2019-01-06T19:08:01.712Z,16.40
2019-01-06T19:10:50.002Z,14.33
2019-01-06T19:13:47.645Z,11.00
2019-01-06T19:16:34.095Z,12.50
2019-01-06T19:19:20.713Z,12.53
2019-01-06T19:22:27.207Z,11.73
2019-01-06T19:25:33.292Z,11.20
2019-01-06T19:28:20.019Z,12.97
2019-01-06T19:31:13.465Z,13.47
2019-01-06T19:34:04.358Z,15.43
2019-01-06T19:37:04.390Z,13.60
2019-01-06T19:39:51.207Z,13.57
2019-01-06T19:42:37.994Z,18.40
2019-01-06T19:45:33.763Z,13.47
2019-01-06T19:48:20.044Z,14.67
2019-01-06T19:51:08.366Z,11.03
2019-01-06T19:53:59.525Z,13.93
2019-01-06T19:56:53.579Z,14.43
2019-01-06T19:59:40.400Z,11.67
2019-01-06T20:02:28.456Z,11.63
2019-01-06T20:05:16.576Z,16.90
2019-01-06T20:07:59.380Z,14.80
2019-01-06T20:11:06.027Z,12.83
2019-01-06T20:14:04.004Z,11.83
2019-01-06T20:16:50.457Z,8.13
2019-01-06T20:19:40.530Z,12.60
2019-01-06T20:22:41.903Z,10.93
2019-01-06T20:25:30.523Z,15.80
2019-01-06T20:28:21.412Z,14.17
2019-01-06T20:31:07.861Z,15.83
2019-01-06T20:33:51.866Z,14.50
2019-01-06T20:36:38.620Z,12.17
2019-01-06T20:39:41.909Z,9.20
2019-01-06T20:42:29.841Z,9.97
2019-01-06T20:45:23.986Z,12.80
2019-01-06T20:48:09.920Z,12.87
2019-01-06T20:50:57.932Z,15.40
2019-01-06T20:53:53.746Z,17.47
2019-01-06T20:56:40.327Z,10.07
2019-01-06T20:59:27.295Z,10.90
2019-01-06T21:02:13.749Z,14.63
2019-01-06T21:05:05.117Z,8.83
2019-01-06T21:08:11.383Z,14.93
2019-01-06T21:10:59.324Z,16.30
2019-01-06T21:14:05.327Z,13.60
2019-01-06T21:16:56.223Z,15.67
2019-01-06T21:19:40.715Z,13.00
2019-01-06T21:22:43.603Z,15.83
2019-01-06T21:25:30.091Z,20.87
2019-01-06T21:28:16.489Z,14.20
2019-01-06T21:31:16.027Z,11.00
2019-01-06T21:34:02.459Z,14.60
2019-01-06T21:37:05.776Z,16.77
2019-01-06T21:39:59.756Z,18.03
2019-01-06T21:42:53.432Z,14.97
2019-01-06T21:45:44.443Z,15.53
2019-01-06T21:48:31.104Z,15.30
2019-01-06T21:51:17.819Z,16.93
2019-01-06T21:54:21.008Z,15.40
2019-01-06T21:57:11.940Z,12.40
2019-01-06T21:59:59.931Z,11.93
2019-01-06T22:02:47.819Z,12.10
2019-01-06T22:05:41.746Z,16.13
2019-01-06T22:08:28.197Z,14.37
2019-01-06T22:11:14.871Z,13.93
2019-01-06T22:13:57.427Z,17.13
2019-01-06T22:16:49.324Z,12.70
2019-01-06T22:19:34.544Z,16.93
2019-01-06T22:22:20.292Z,15.10
2019-01-06T22:25:07.035Z,11.83
2019-01-06T22:27:53.615Z,12.97
2019-01-06T22:30:40.399Z,18.80
2019-01-06T22:33:37.516Z,11.23
2019-01-06T22:36:23.220Z,9.50
2019-01-06T22:39:08.463Z,10.40
2019-01-06T22:42:09.484Z,11.13
2019-01-06T22:44:57.395Z,12.90
2019-01-06T22:47:57.785Z,10.40
2019-01-06T22:50:44.407Z,8.47
2019-01-06T22:53:31.032Z,15.40
2019-01-06T22:56:22.035Z,12.60
2019-01-06T22:59:25.551Z,9.47
2019-01-06T23:02:13.856Z,9.60
2019-01-06T23:05:01.678Z,10.53
2019-01-06T23:07:58.387Z,14.00
2019-01-06T23:10:46.556Z,17.23
2019-01-06T23:13:32.847Z,15.50
2019-01-06T23:16:16.615Z,21.60
2019-01-06T23:19:03.428Z,19.57
2019-01-06T23:21:54.367Z,14.37
2019-01-06T23:24:51.212Z,21.87
2019-01-06T23:27:39.124Z,17.13
2019-01-06T23:30:32.939Z,12.63
2019-01-06T23:33:40.121Z,13.30
2019-01-06T23:36:39.867Z,16.57
2019-01-06T23:39:39.237Z,20.97
2019-01-06T23:42:38.684Z,20.57
2019-01-06T23:45:38.581Z,17.93
2019-01-06T23:48:37.978Z,12.60
2019-01-06T23:51:37.386Z,18.23
2019-01-06T23:54:36.770Z,18.30
2019-01-06T23:57:36.898Z,18.00
